createdAt,value
2023-03-01T00:01:58.427Z,18.47
2023-03-01T00:04:26.878Z,16.57
2023-03-01T00:06:55.651Z,18.07
2023-03-01T00:09:24.241Z,19.60
2023-03-01T00:11:52.901Z,17.87
2023-03-01T00:14:24.998Z,19.13
2023-03-01T00:16:53.777Z,16.30
2023-03-01T00:19:23.993Z,15.20
2023-03-01T00:21:52.632Z,21.23
2023-03-01T00:24:21.739Z,20.60
2023-03-01T00:26:51.046Z,16.30
2023-03-01T00:29:19.813Z,15.60
2023-03-01T00:31:49.900Z,21.57
2023-03-01T00:34:18.508Z,17.73
2023-03-01T00:36:47.259Z,21.27
2023-03-01T00:39:17.476Z,23.70
2023-03-01T00:41:46.872Z,18.67
2023-03-01T00:44:15.517Z,20.70
2023-03-01T00:46:44.677Z,21.27
2023-03-01T00:49:14.783Z,22.23
2023-03-01T00:51:43.410Z,21.30
2023-03-01T00:54:12.325Z,19.43
2023-03-01T00:56:41.343Z,26.40
2023-03-01T00:59:09.907Z,23.77
2023-03-01T01:01:38.858Z,18.60
2023-03-01T01:04:09.747Z,16.97
2023-03-01T01:06:43.650Z,15.83
2023-03-01T01:09:18.217Z,17.40
2023-03-01T01:11:47.512Z,17.73
2023-03-01T01:14:16.550Z,25.43
2023-03-01T01:16:45.625Z,15.83
2023-03-01T01:19:14.456Z,17.50
2023-03-01T01:21:49.606Z,16.60
2023-03-01T01:24:21.121Z,17.17
2023-03-01T01:26:52.256Z,15.37
2023-03-01T01:29:20.970Z,15.50
2023-03-01T01:31:49.660Z,23.27
2023-03-01T01:34:20.566Z,20.43
2023-03-01T01:36:52.508Z,21.90
2023-03-01T01:39:20.870Z,20.73
2023-03-01T01:41:51.556Z,21.97
2023-03-01T01:44:21.931Z,20.63
2023-03-01T01:46:53.446Z,24.57
2023-03-01T01:49:26.956Z,16.63
2023-03-01T01:52:03.158Z,21.50
2023-03-01T01:54:36.799Z,26.60
2023-03-01T01:57:09.992Z,22.43
2023-03-01T01:59:39.730Z,22.80
2023-03-01T02:02:08.555Z,19.77
2023-03-01T02:04:37.072Z,19.77
2023-03-01T02:07:11.968Z,21.60
2023-03-01T02:09:40.609Z,19.30
2023-03-01T02:12:09.303Z,22.40
2023-03-01T02:14:37.695Z,31.90
2023-03-01T02:17:06.448Z,18.83
2023-03-01T02:19:45.532Z,23.80
2023-03-01T02:22:28.328Z,20.77
2023-03-01T02:25:08.356Z,23.70
2023-03-01T02:27:43.549Z,22.40
2023-03-01T02:30:14.646Z,23.93
2023-03-01T02:32:42.955Z,19.40
2023-03-01T02:35:14.937Z,19.47
2023-03-01T02:37:44.271Z,19.67
2023-03-01T02:40:16.748Z,21.30
2023-03-01T02:42:50.360Z,20.40
2023-03-01T02:45:20.790Z,20.57
2023-03-01T02:47:49.523Z,23.67
2023-03-01T02:50:36.952Z,23.00
2023-03-01T02:53:11.207Z,24.47
2023-03-01T02:55:42.219Z,22.43
2023-03-01T02:58:13.556Z,23.63
2023-03-01T03:00:48.140Z,23.63
2023-03-01T03:03:18.460Z,24.30
2023-03-01T03:05:50.334Z,23.97
2023-03-01T03:08:25.456Z,22.57
2023-03-01T03:10:54.900Z,22.87
2023-03-01T03:13:23.617Z,20.90
2023-03-01T03:15:53.734Z,27.30
2023-03-01T03:18:22.402Z,21.53
2023-03-01T03:20:54.041Z,30.77
2023-03-01T03:23:23.174Z,20.70
2023-03-01T03:25:52.182Z,22.80
2023-03-01T03:28:21.028Z,20.57
2023-03-01T03:30:51.356Z,18.60
2023-03-01T03:33:47.334Z,21.97
2023-03-01T03:36:18.924Z,25.60
2023-03-01T03:38:47.578Z,24.43
2023-03-01T03:41:16.373Z,25.23
2023-03-01T03:48:04.954Z,23.90
2023-03-01T03:50:35.556Z,23.10
2023-03-01T03:53:08.524Z,22.30
2023-03-01T03:55:40.519Z,25.53
2023-03-01T03:58:10.953Z,23.20
2023-03-01T04:00:41.462Z,22.93
2023-03-01T04:03:11.129Z,21.53
2023-03-01T04:05:44.062Z,23.80
2023-03-01T04:08:12.674Z,21.67
2023-03-01T04:10:44.293Z,22.17
2023-03-01T04:13:31.802Z,20.20
2023-03-01T04:16:01.676Z,26.27
2023-03-01T04:18:30.475Z,25.83
2023-03-01T04:21:00.412Z,19.27
2023-03-01T04:23:31.408Z,24.33
2023-03-01T04:26:01.591Z,23.30
2023-03-01T04:28:35.158Z,24.77
2023-03-01T04:31:14.541Z,21.10
2023-03-01T04:33:44.104Z,23.13
2023-03-01T04:36:15.947Z,23.47
2023-03-01T04:38:48.664Z,24.10
2023-03-01T04:41:18.710Z,28.10
2023-03-01T04:43:47.643Z,25.97
2023-03-01T04:46:19.058Z,29.00
2023-03-01T04:48:48.508Z,28.37
2023-03-01T04:51:19.673Z,27.90
2023-03-01T04:53:48.294Z,29.20
2023-03-01T04:56:17.245Z,22.70
2023-03-01T04:58:46.499Z,34.00
2023-03-01T05:01:17.425Z,28.17
2023-03-01T05:03:46.633Z,25.87
2023-03-01T05:06:15.413Z,25.57
2023-03-01T05:08:46.070Z,23.70
2023-03-01T05:11:15.181Z,26.07
2023-03-01T05:13:45.598Z,29.23
2023-03-01T05:16:15.527Z,26.70
2023-03-01T05:18:44.495Z,26.83
2023-03-01T05:21:17.547Z,29.30
2023-03-01T05:23:48.006Z,25.87
2023-03-01T05:26:33.946Z,27.40
2023-03-01T05:29:02.358Z,27.77
2023-03-01T05:31:32.117Z,30.17
2023-03-01T05:34:00.607Z,27.20
2023-03-01T05:36:32.793Z,25.80
2023-03-01T05:39:02.825Z,31.73
2023-03-01T05:41:31.357Z,30.53
2023-03-01T05:43:59.954Z,31.70
2023-03-01T05:46:30.920Z,28.77
2023-03-01T05:49:01.281Z,26.97
2023-03-01T05:51:31.226Z,28.50
2023-03-01T05:53:59.832Z,23.73
2023-03-01T05:56:33.429Z,30.10
2023-03-01T05:59:01.851Z,29.93
2023-03-01T06:01:32.516Z,27.30
2023-03-01T06:04:01.017Z,26.77
2023-03-01T06:06:32.007Z,31.53
2023-03-01T06:09:00.671Z,24.20
2023-03-01T06:11:33.712Z,27.50
2023-03-01T06:14:02.640Z,23.17
2023-03-01T06:16:31.431Z,27.43
2023-03-01T06:19:01.540Z,29.70
2023-03-01T06:21:32.975Z,26.67
2023-03-01T06:24:01.484Z,23.63
2023-03-01T06:26:31.643Z,22.03
2023-03-01T06:29:00.318Z,26.17
2023-03-01T06:31:28.971Z,29.90
2023-03-01T06:33:57.549Z,27.90
2023-03-01T06:36:26.271Z,27.40
2023-03-01T06:38:56.845Z,29.80
2023-03-01T06:41:25.468Z,32.83
2023-03-01T06:43:56.320Z,35.67
2023-03-01T06:46:32.537Z,22.10
2023-03-01T06:49:01.329Z,24.93
2023-03-01T06:51:31.148Z,30.53
2023-03-01T06:54:01.605Z,23.33
2023-03-01T06:56:35.184Z,29.70
2023-03-01T06:59:05.574Z,35.60
2023-03-01T07:01:34.928Z,26.00
2023-03-01T07:04:03.403Z,33.67
2023-03-01T07:06:35.471Z,24.00
2023-03-01T07:09:04.053Z,27.30
2023-03-01T07:11:32.359Z,24.43
2023-03-01T07:14:03.084Z,28.37
2023-03-01T07:16:33.515Z,24.63
2023-03-01T07:19:04.644Z,24.00
2023-03-01T07:21:33.301Z,31.17
2023-03-01T07:24:02.259Z,30.83
2023-03-01T07:26:33.434Z,24.70
2023-03-01T07:29:02.599Z,23.20
2023-03-01T07:31:34.272Z,20.63
2023-03-01T07:34:02.931Z,23.30
2023-03-01T07:36:31.983Z,27.93
2023-03-01T07:39:03.525Z,29.60
2023-03-01T07:41:32.265Z,32.03
2023-03-01T07:44:00.687Z,25.60
2023-03-01T07:46:29.721Z,24.77
2023-03-01T07:49:00.707Z,21.13
2023-03-01T07:51:29.217Z,37.43
2023-03-01T07:53:58.410Z,21.60
2023-03-01T07:56:30.180Z,22.83
2023-03-01T07:58:59.037Z,25.30
2023-03-01T08:01:27.774Z,25.33
2023-03-01T08:03:56.465Z,20.67
2023-03-01T08:06:27.926Z,23.70
2023-03-01T08:08:56.633Z,27.03
2023-03-01T08:11:25.624Z,21.87
2023-03-01T08:13:54.420Z,26.40
2023-03-01T08:16:23.401Z,26.57
2023-03-01T08:18:57.848Z,26.57
2023-03-01T08:21:35.954Z,26.13
2023-03-01T08:24:04.762Z,22.40
2023-03-01T08:26:34.228Z,27.10
2023-03-01T08:29:03.261Z,20.60
2023-03-01T08:31:34.521Z,20.77
2023-03-01T08:34:07.589Z,20.00
2023-03-01T08:36:39.341Z,14.37
2023-03-01T08:39:07.927Z,21.07
2023-03-01T08:41:36.981Z,22.90
2023-03-01T08:44:06.301Z,18.67
2023-03-01T08:46:37.203Z,24.73
2023-03-01T08:49:06.924Z,21.17
2023-03-01T08:51:37.983Z,16.60
2023-03-01T08:54:09.044Z,20.77
2023-03-01T08:56:38.155Z,21.10
2023-03-01T08:59:07.276Z,24.40
2023-03-01T09:01:36.376Z,27.27
2023-03-01T09:04:05.088Z,24.33
2023-03-01T09:06:35.713Z,19.67
2023-03-01T09:09:04.855Z,21.53
2023-03-01T09:11:35.615Z,15.83
2023-03-01T09:14:08.909Z,16.53
2023-03-01T09:16:37.661Z,16.00
2023-03-01T09:19:06.865Z,16.03
2023-03-01T09:21:53.547Z,17.00
2023-03-01T09:24:23.509Z,15.90
2023-03-01T09:26:56.101Z,16.50
2023-03-01T09:29:25.190Z,12.80
2023-03-01T09:31:56.282Z,18.20
2023-03-01T09:34:25.482Z,11.67
2023-03-01T09:36:54.452Z,15.00
2023-03-01T09:39:25.697Z,14.57
2023-03-01T09:42:03.269Z,16.57
2023-03-01T09:44:41.121Z,13.77
2023-03-01T09:47:15.410Z,15.37
2023-03-01T09:49:49.814Z,11.80
2023-03-01T09:52:26.680Z,16.00
2023-03-01T09:54:59.603Z,16.37
2023-03-01T09:57:36.475Z,15.40
2023-03-01T10:00:29.482Z,18.20
2023-03-01T10:03:01.796Z,14.00
2023-03-01T10:05:41.777Z,24.10
2023-03-01T10:08:37.526Z,13.13
2023-03-01T10:11:07.731Z,19.40
2023-03-01T10:13:50.247Z,16.57
2023-03-01T10:16:24.303Z,22.67
2023-03-01T10:18:56.321Z,15.53
2023-03-01T10:21:25.587Z,13.73
2023-03-01T10:23:55.294Z,19.43
2023-03-01T10:26:37.588Z,15.30
2023-03-01T10:29:09.994Z,13.00
2023-03-01T10:31:44.432Z,13.70
2023-03-01T10:34:19.082Z,14.40
2023-03-01T10:36:51.004Z,14.23
2023-03-01T10:39:21.293Z,16.40
2023-03-01T10:42:00.157Z,19.07
2023-03-01T10:44:47.439Z,13.33
2023-03-01T10:47:21.544Z,12.43
2023-03-01T10:49:55.609Z,13.70
2023-03-01T10:52:27.157Z,13.93
2023-03-01T10:55:03.459Z,13.83
2023-03-01T10:57:42.977Z,14.20
2023-03-01T11:00:26.188Z,16.50
2023-03-01T11:03:12.558Z,13.77
2023-03-01T11:06:00.030Z,13.40
2023-03-01T11:08:35.085Z,13.20
2023-03-01T11:11:15.587Z,11.90
2023-03-01T11:13:59.525Z,16.17
2023-03-01T11:16:33.269Z,16.30
2023-03-01T11:19:19.383Z,17.13
2023-03-01T11:21:59.940Z,19.30
2023-03-01T11:24:35.031Z,14.00
2023-03-01T11:27:07.979Z,16.93
2023-03-01T11:29:48.456Z,16.10
2023-03-01T11:32:20.425Z,18.23
2023-03-01T11:34:53.925Z,18.00
2023-03-01T11:37:31.724Z,19.17
2023-03-01T11:40:14.198Z,19.40
2023-03-01T11:42:51.158Z,19.07
2023-03-01T11:45:24.043Z,15.80
2023-03-01T11:48:09.460Z,23.77
2023-03-01T11:50:43.281Z,22.77
2023-03-01T11:53:36.284Z,20.07
2023-03-01T11:56:12.565Z,20.67
2023-03-01T11:58:49.737Z,18.17
2023-03-01T12:01:29.557Z,17.07
2023-03-01T12:04:25.621Z,17.87
2023-03-01T12:06:59.690Z,18.40
2023-03-01T12:09:41.400Z,19.30
2023-03-01T12:12:28.046Z,26.73
2023-03-01T12:15:24.608Z,22.13
2023-03-01T12:18:07.964Z,14.60
2023-03-01T12:20:42.285Z,23.10
2023-03-01T12:23:39.656Z,20.80
2023-03-01T12:26:16.205Z,23.40
2023-03-01T12:29:03.799Z,25.60
2023-03-01T12:32:01.569Z,23.67
2023-03-01T12:34:56.376Z,17.70
2023-03-01T12:37:32.249Z,20.70
2023-03-01T12:40:22.092Z,22.40
2023-03-01T12:42:58.737Z,23.13
2023-03-01T12:45:50.662Z,21.70
2023-03-01T12:48:38.624Z,20.60
2023-03-01T12:51:11.955Z,18.97
2023-03-01T12:53:44.421Z,22.27
2023-03-01T12:56:17.359Z,32.37
2023-03-01T12:58:58.892Z,21.43
2023-03-01T13:01:36.032Z,19.30
2023-03-01T13:04:27.543Z,23.50
2023-03-01T13:07:09.227Z,22.10
2023-03-01T13:09:45.156Z,19.93
2023-03-01T13:12:46.186Z,28.77
2023-03-01T13:15:32.464Z,20.07
2023-03-01T13:18:06.698Z,19.40
2023-03-01T13:20:48.921Z,22.13
2023-03-01T13:23:28.310Z,28.17
2023-03-01T13:26:07.598Z,23.43
2023-03-01T13:28:44.390Z,23.47
2023-03-01T13:31:29.815Z,23.23
2023-03-01T13:33:59.381Z,29.27
2023-03-01T13:36:50.190Z,22.33
2023-03-01T13:39:36.855Z,23.33
2023-03-01T13:42:34.095Z,24.10
2023-03-01T13:45:02.876Z,21.80
2023-03-01T13:47:31.702Z,19.93
2023-03-01T13:50:01.640Z,19.93
2023-03-01T13:52:38.161Z,28.73
2023-03-01T13:55:09.819Z,17.33
2023-03-01T13:57:42.887Z,20.53
2023-03-01T14:00:33.116Z,26.97
2023-03-01T14:03:08.583Z,33.83
2023-03-01T14:05:38.210Z,23.83
2023-03-01T14:08:07.112Z,26.00
2023-03-01T14:10:44.479Z,21.53
2023-03-01T14:13:26.177Z,24.50
2023-03-01T14:16:20.822Z,23.63
2023-03-01T14:18:56.419Z,23.20
2023-03-01T14:21:26.978Z,20.53
2023-03-01T14:23:55.834Z,21.43
2023-03-01T14:26:24.764Z,18.90
2023-03-01T14:28:57.437Z,22.03
2023-03-01T14:31:41.051Z,21.80
2023-03-01T14:34:24.660Z,19.80
2023-03-01T14:36:53.160Z,22.60
2023-03-01T14:39:27.575Z,22.03
2023-03-01T14:41:58.869Z,25.60
2023-03-01T14:44:31.120Z,20.77
2023-03-01T14:47:02.475Z,21.90
2023-03-01T14:49:33.173Z,23.80
2023-03-01T14:52:03.369Z,23.57
2023-03-01T14:54:38.176Z,21.87
2023-03-01T14:57:06.761Z,21.13
2023-03-01T14:59:37.514Z,21.70
2023-03-01T15:02:18.401Z,20.00
2023-03-01T15:04:48.285Z,22.03
2023-03-01T15:07:17.040Z,24.03
2023-03-01T15:09:46.478Z,25.10
2023-03-01T15:12:38.130Z,28.13
2023-03-01T15:15:31.062Z,25.30
2023-03-01T15:18:01.490Z,21.07
2023-03-01T15:20:33.601Z,21.97
2023-03-01T15:23:03.474Z,22.63
2023-03-01T15:25:33.532Z,32.43
2023-03-01T15:28:03.169Z,28.13
2023-03-01T15:30:38.973Z,27.43
2023-03-01T15:33:22.658Z,24.17
2023-03-01T15:35:54.692Z,22.43
2023-03-01T15:38:35.510Z,25.73
2023-03-01T15:41:06.382Z,25.20
2023-03-01T15:43:46.783Z,26.70
2023-03-01T15:49:49.602Z,26.73
2023-03-01T15:52:30.189Z,34.07
2023-03-01T15:55:00.728Z,28.03
2023-03-01T15:57:29.445Z,25.87
2023-03-01T15:59:58.331Z,27.43
2023-03-01T16:02:31.199Z,33.53
2023-03-01T16:05:04.849Z,32.20
2023-03-01T16:07:33.481Z,31.40
2023-03-01T16:10:02.529Z,29.67
2023-03-01T16:12:34.044Z,36.90
2023-03-01T16:15:03.732Z,43.73
2023-03-01T16:17:59.708Z,50.17
2023-03-01T16:20:30.969Z,45.70
2023-03-01T16:23:02.456Z,40.77
2023-03-01T16:25:33.449Z,57.83
2023-03-01T16:28:06.194Z,51.53
2023-03-01T16:30:36.871Z,37.77
2023-03-01T16:33:30.433Z,33.13
2023-03-01T16:35:59.462Z,36.53
2023-03-01T16:38:30.428Z,26.27
2023-03-01T16:41:02.028Z,26.10
2023-03-01T16:43:33.637Z,27.37
2023-03-01T16:46:12.788Z,24.57
2023-03-01T16:48:44.945Z,29.20
2023-03-01T16:51:14.013Z,27.17
2023-03-01T16:53:47.496Z,34.00
2023-03-01T16:56:16.969Z,25.07
2023-03-01T16:58:45.927Z,37.90
2023-03-01T17:01:16.947Z,27.43
2023-03-01T17:03:48.482Z,32.57
2023-03-01T17:06:21.532Z,29.27
2023-03-01T17:08:52.997Z,31.00
2023-03-01T17:11:22.804Z,25.20
2023-03-01T17:13:51.842Z,23.00
2023-03-01T17:16:23.026Z,24.63
2023-03-01T17:18:53.223Z,21.40
2023-03-01T17:21:22.866Z,27.93
2023-03-01T17:23:53.147Z,25.77
2023-03-01T17:26:23.738Z,27.47
2023-03-01T17:28:53.276Z,27.33
2023-03-01T17:31:21.860Z,23.93
2023-03-01T17:33:50.739Z,25.10
2023-03-01T17:36:24.022Z,19.70
2023-03-01T17:38:58.047Z,32.30
2023-03-01T17:41:26.711Z,22.80
2023-03-01T17:43:56.989Z,26.93
2023-03-01T17:46:29.136Z,25.30
2023-03-01T17:48:57.880Z,25.70
2023-03-01T17:51:28.167Z,27.73
2023-03-01T17:53:56.903Z,21.43
2023-03-01T17:56:30.307Z,23.07
2023-03-01T17:59:01.749Z,29.17
2023-03-01T18:01:31.161Z,37.43
2023-03-01T18:04:00.341Z,29.77
2023-03-01T18:06:31.275Z,25.03
2023-03-01T18:09:00.117Z,22.23
2023-03-01T18:11:29.628Z,43.87
2023-03-01T18:13:58.664Z,24.63
2023-03-01T18:16:32.396Z,31.50
2023-03-01T18:19:01.724Z,25.47
2023-03-01T18:21:34.605Z,22.90
2023-03-01T18:24:03.610Z,19.97
2023-03-01T18:26:32.756Z,27.47
2023-03-01T18:29:03.705Z,25.63
2023-03-01T18:31:34.078Z,25.10
2023-03-01T18:34:02.795Z,26.00
2023-03-01T18:36:35.119Z,17.80
2023-03-01T18:39:04.351Z,22.37
2023-03-01T18:41:37.048Z,23.10
2023-03-01T18:44:06.740Z,24.50
2023-03-01T18:46:37.939Z,22.77
2023-03-01T18:49:07.194Z,22.47
2023-03-01T18:51:39.811Z,21.70
2023-03-01T18:54:10.443Z,23.17
2023-03-01T18:56:40.625Z,22.50
2023-03-01T18:59:35.099Z,19.40
2023-03-01T19:02:03.761Z,20.37
2023-03-01T19:04:32.694Z,22.23
2023-03-01T19:07:03.558Z,23.97
2023-03-01T19:09:32.355Z,17.57
2023-03-01T19:12:03.799Z,25.53
2023-03-01T19:14:32.456Z,20.53
2023-03-01T19:21:03.958Z,18.93
2023-03-01T19:23:35.339Z,24.23
2023-03-01T19:26:06.852Z,21.70
2023-03-01T19:28:38.216Z,29.77
2023-03-01T19:31:09.988Z,25.37
2023-03-01T19:33:40.502Z,25.03
2023-03-01T19:36:10.447Z,29.40
2023-03-01T19:38:41.244Z,29.87
2023-03-01T19:41:11.976Z,28.20
2023-03-01T19:43:40.774Z,23.47
2023-03-01T19:46:13.230Z,29.07
2023-03-01T19:48:41.741Z,22.00
2023-03-01T19:51:13.310Z,20.90
2023-03-01T19:53:43.696Z,19.17
2023-03-01T19:56:15.870Z,23.23
2023-03-01T19:59:07.303Z,17.83
2023-03-01T20:01:38.049Z,21.70
2023-03-01T20:04:07.365Z,20.23
2023-03-01T20:06:36.736Z,26.30
2023-03-01T20:09:20.352Z,24.67
2023-03-01T20:11:50.475Z,24.47
2023-03-01T20:14:24.108Z,26.90
2023-03-01T20:16:53.646Z,20.47
2023-03-01T20:19:22.522Z,18.73
2023-03-01T20:21:51.514Z,22.00
2023-03-01T20:24:21.463Z,19.40
2023-03-01T20:26:50.360Z,18.67
2023-03-01T20:29:20.232Z,23.03
2023-03-01T20:31:49.325Z,18.67
2023-03-01T20:34:20.608Z,24.60
2023-03-01T20:36:49.638Z,16.30
2023-03-01T20:39:18.695Z,16.07
2023-03-01T20:41:49.091Z,19.17
2023-03-01T20:44:17.772Z,21.23
2023-03-01T20:46:48.715Z,17.40
2023-03-01T20:49:21.713Z,21.43
2023-03-01T20:51:50.657Z,23.37
2023-03-01T20:54:20.034Z,16.33
2023-03-01T20:56:50.526Z,17.30
2023-03-01T20:59:21.432Z,21.50
2023-03-01T21:01:50.099Z,14.50
2023-03-01T21:04:18.929Z,18.50
2023-03-01T21:06:48.121Z,24.43
2023-03-01T21:09:17.482Z,18.33
2023-03-01T21:11:46.677Z,21.07
2023-03-01T21:14:17.298Z,17.10
2023-03-01T21:16:46.976Z,16.23
2023-03-01T21:19:16.040Z,18.97
2023-03-01T21:21:46.978Z,17.07
2023-03-01T21:24:15.992Z,17.50
2023-03-01T21:26:46.618Z,16.90
2023-03-01T21:29:19.094Z,18.37
2023-03-01T21:31:47.927Z,21.10
2023-03-01T21:34:20.043Z,17.43
2023-03-01T21:36:48.750Z,21.80
2023-03-01T21:39:17.621Z,21.10
2023-03-01T21:41:47.101Z,20.13
2023-03-01T21:44:16.276Z,14.63
2023-03-01T21:46:46.989Z,17.03
2023-03-01T21:49:15.787Z,20.07
2023-03-01T21:51:44.413Z,23.43
2023-03-01T21:54:17.283Z,16.20
2023-03-01T21:56:48.843Z,22.30
2023-03-01T21:59:20.472Z,20.47
2023-03-01T22:01:56.889Z,21.90
2023-03-01T22:04:26.221Z,17.60
2023-03-01T22:07:01.103Z,22.60
2023-03-01T22:09:30.373Z,28.43
2023-03-01T22:12:02.752Z,30.63
2023-03-01T22:14:32.680Z,23.03
2023-03-01T22:17:03.263Z,20.43
2023-03-01T22:19:33.267Z,21.53
2023-03-01T22:22:01.786Z,25.47
2023-03-01T22:24:30.419Z,19.20
2023-03-01T22:26:59.353Z,21.20
2023-03-01T22:29:29.612Z,19.27
2023-03-01T22:31:58.907Z,22.43
2023-03-01T22:34:31.753Z,21.03
2023-03-01T22:37:00.537Z,18.87
2023-03-01T22:39:29.070Z,23.63
2023-03-01T22:41:57.890Z,17.40
2023-03-01T22:44:26.936Z,21.20
2023-03-01T22:46:55.744Z,16.63
2023-03-01T22:49:24.751Z,24.30
2023-03-01T22:51:54.944Z,21.03
2023-03-01T22:54:23.759Z,20.43
2023-03-01T22:56:52.638Z,20.83
2023-03-01T22:59:46.748Z,19.90
2023-03-01T23:02:17.604Z,22.87
2023-03-01T23:04:48.646Z,23.17
2023-03-01T23:07:19.304Z,18.30
2023-03-01T23:09:50.598Z,18.33
2023-03-01T23:12:21.430Z,20.83
2023-03-01T23:14:51.388Z,21.10
2023-03-01T23:17:25.525Z,23.00
2023-03-01T23:19:54.308Z,21.07
2023-03-01T23:22:24.549Z,18.77
2023-03-01T23:24:53.292Z,16.87
2023-03-01T23:27:22.454Z,18.40
2023-03-01T23:29:53.835Z,17.33
2023-03-01T23:32:22.420Z,20.50
2023-03-01T23:34:51.099Z,18.97
2023-03-01T23:37:22.024Z,17.53
2023-03-01T23:39:52.655Z,19.50
2023-03-01T23:42:21.340Z,27.43
2023-03-01T23:44:50.077Z,22.47
2023-03-01T23:47:18.723Z,17.60
2023-03-01T23:49:48.562Z,17.57
2023-03-01T23:52:17.779Z,18.20
2023-03-01T23:54:46.812Z,20.00
2023-03-01T23:57:18.537Z,17.17
2023-03-01T23:59:50.953Z,18.43
